Marion, Montana
Current Conditions -  °F | °C
As of 5:55 PM on Saturday 25 Oct 2014 (Local Time) from KGPI Reporting Station
Broken Clouds Broken Clouds  
Wind Chill: 52°   Ceiling: 12000
Heat Index: 52°   Visibility: 10mi
Dew Point: 42°   Wind: 0mph
Humidity: 69%   Direction: NA
Pressure: 29.66"   Gusts: NA
Location:  48.11°N, 114.66°W
Report Text: KGPI 252355Z 00000KT 10SM BKN120 11/06 A2966 RMK AO2 SLP049 T01110056 10133 20089 56022
Loading
Personal Weather Stations






























Interactive Weather Map New forecast layout! Learn more

10-Day Weather Forecast

Advertisements
Track Severe Weather on mobile